createdAt,value
2023-04-03T00:00:50.542Z,1.50
2023-04-03T00:05:50.453Z,1.40
2023-04-03T00:10:50.844Z,1.40
2023-04-03T00:15:51.087Z,1.30
2023-04-03T00:20:50.522Z,1.20
2023-04-03T00:25:49.929Z,1.10
2023-04-03T00:30:51.125Z,1.00
2023-04-03T00:35:50.885Z,0.90
2023-04-03T00:40:52.630Z,0.88
2023-04-03T00:45:54.486Z,0.74
2023-04-03T00:50:55.712Z,0.70
2023-04-03T00:55:56.908Z,0.60
2023-04-03T01:01:05.675Z,0.50
2023-04-03T01:06:07.199Z,0.40
2023-04-03T01:11:06.676Z,0.36
2023-04-03T01:16:10.344Z,0.30
2023-04-03T01:21:50.387Z,0.20
2023-04-03T01:26:51.559Z,0.10
2023-04-03T01:32:01.170Z,0.10
2023-04-03T01:37:00.879Z,0.00
2023-04-03T01:42:00.494Z,-0.08
2023-04-03T01:47:07.520Z,-0.10
2023-04-03T01:52:10.024Z,-0.20
2023-04-03T01:57:10.102Z,-0.24
2023-04-03T02:02:09.648Z,-0.30
2023-04-03T02:07:09.849Z,-0.34
2023-04-03T02:12:09.694Z,-0.40
2023-04-03T02:17:09.963Z,-0.40
2023-04-03T02:22:09.880Z,-0.50
2023-04-03T02:27:09.237Z,-0.50
2023-04-03T02:32:09.682Z,-0.50
2023-04-03T02:37:09.419Z,-0.60
2023-04-03T02:42:09.599Z,-0.60
2023-04-03T02:47:09.949Z,-0.70
2023-04-03T02:52:09.822Z,-0.70
2023-04-03T02:57:10.251Z,-0.70
2023-04-03T03:02:09.896Z,-0.80
2023-04-03T03:07:09.188Z,-0.80
2023-04-03T03:12:09.924Z,-0.90
2023-04-03T03:17:09.231Z,-1.00
2023-04-03T03:22:10.562Z,-1.04
2023-04-03T03:27:10.166Z,-1.10
2023-04-03T03:32:10.329Z,-1.16
2023-04-03T03:37:09.819Z,-1.20
2023-04-03T03:42:09.422Z,-1.22
2023-04-03T03:47:11.921Z,-1.30
2023-04-03T03:52:12.406Z,-1.30
2023-04-03T03:57:12.093Z,-1.38
2023-04-03T04:02:12.370Z,-1.40
2023-04-03T04:07:11.792Z,-1.40
2023-04-03T04:12:11.561Z,-1.40
2023-04-03T04:17:11.512Z,-1.40
2023-04-03T04:22:11.784Z,-1.30
2023-04-03T04:27:10.525Z,-1.30
2023-04-03T04:32:11.220Z,-1.30
2023-04-03T04:37:09.834Z,-1.30
2023-04-03T04:42:15.558Z,-1.30
2023-04-03T04:47:17.458Z,-1.30
2023-04-03T04:52:17.292Z,-1.20
2023-04-03T04:57:18.527Z,-1.20
2023-04-03T05:02:18.978Z,-1.10
2023-04-03T05:07:18.605Z,-1.00
2023-04-03T05:12:18.667Z,-0.86
2023-04-03T05:17:23.701Z,-0.70
2023-04-03T05:22:25.631Z,-0.50
2023-04-03T05:27:29.340Z,-0.34
2023-04-03T05:32:30.066Z,-0.20
2023-04-03T05:37:56.206Z,-0.14
2023-04-03T05:42:55.949Z,-0.10
2023-04-03T05:47:56.313Z,0.00
2023-04-03T05:53:01.064Z,0.00
2023-04-03T05:58:01.184Z,0.00
2023-04-03T06:03:01.268Z,0.00
2023-04-03T06:08:01.399Z,0.00
2023-04-03T06:13:00.837Z,0.10
2023-04-03T06:18:00.769Z,0.14
2023-04-03T06:23:01.225Z,0.20
2023-04-03T06:28:01.308Z,0.20
2023-04-03T06:33:00.677Z,0.22
2023-04-03T06:38:00.777Z,0.30
2023-04-03T06:42:59.933Z,0.40
2023-04-03T06:48:00.888Z,0.40
2023-04-03T06:53:02.111Z,0.46
2023-04-03T06:58:01.638Z,0.50
2023-04-03T07:03:02.243Z,0.58
2023-04-03T07:08:01.932Z,0.70
2023-04-03T07:13:00.420Z,0.90
2023-04-03T07:17:59.794Z,1.10
2023-04-03T07:22:59.094Z,1.30
2023-04-03T07:27:58.858Z,1.46
2023-04-03T07:32:57.973Z,1.60
2023-04-03T07:37:57.311Z,1.70
2023-04-03T07:42:57.950Z,1.80
2023-04-03T07:47:57.559Z,2.00
2023-04-03T07:52:58.762Z,2.10
2023-04-03T07:57:58.856Z,2.20
2023-04-03T08:02:58.022Z,2.30
2023-04-03T08:07:57.125Z,2.46
2023-04-03T08:12:56.245Z,2.60
2023-04-03T08:17:56.367Z,2.68
2023-04-03T08:22:55.598Z,2.80
2023-04-03T08:27:55.282Z,2.92
2023-04-03T08:32:54.426Z,3.00
2023-04-03T08:37:53.774Z,3.10
2023-04-03T08:43:07.838Z,3.30
2023-04-03T08:48:14.770Z,3.50
2023-04-03T08:53:21.241Z,3.60
2023-04-03T08:58:24.060Z,3.80
2023-04-03T09:03:25.945Z,3.96
2023-04-03T09:08:31.286Z,4.10
2023-04-03T09:13:39.907Z,4.30
2023-04-03T09:18:52.237Z,4.50
2023-04-03T09:23:55.337Z,4.66
2023-04-03T09:28:56.400Z,4.90
2023-04-03T09:33:59.921Z,5.20
2023-04-03T09:39:13.690Z,5.40
2023-04-03T09:44:29.001Z,5.82
2023-04-03T09:49:28.961Z,6.20
2023-04-03T09:54:42.153Z,6.56
2023-04-03T09:59:59.145Z,6.80
2023-04-03T10:05:08.781Z,7.00
2023-04-03T10:10:26.871Z,7.20
2023-04-03T10:15:28.358Z,7.50
2023-04-03T10:20:38.857Z,7.82
2023-04-03T10:25:47.709Z,8.10
2023-04-03T10:31:00.048Z,8.30
2023-04-03T10:36:14.949Z,8.00
2023-04-03T10:41:24.839Z,7.56
2023-04-03T10:46:30.296Z,7.40
2023-04-03T10:51:43.397Z,7.50
2023-04-03T10:56:55.371Z,7.20
2023-04-03T11:02:06.773Z,7.06
2023-04-03T11:07:13.861Z,7.30
2023-04-03T11:12:23.488Z,7.40
2023-04-03T11:17:36.374Z,7.30
2023-04-03T11:22:41.994Z,7.50
2023-04-03T11:27:48.158Z,7.40
2023-04-03T11:33:27.789Z,7.30
2023-04-03T11:38:35.830Z,7.50
2023-04-03T11:43:42.073Z,7.30
2023-04-03T11:49:06.595Z,7.50
2023-04-03T11:54:48.966Z,7.64
2023-04-03T11:59:48.082Z,7.78
2023-04-03T12:05:31.583Z,8.42
2023-04-03T12:10:33.153Z,8.56
2023-04-03T12:16:01.231Z,8.70
2023-04-03T12:21:04.441Z,8.90
2023-04-03T12:26:28.272Z,8.80
2023-04-03T12:31:48.664Z,9.30
2023-04-03T12:37:06.334Z,9.60
2023-04-03T12:42:40.190Z,9.26
2023-04-03T12:47:44.680Z,8.40
2023-04-03T12:52:52.497Z,8.10
2023-04-03T12:57:51.852Z,8.60
2023-04-03T13:02:51.523Z,8.74
2023-04-03T13:07:58.849Z,8.80
2023-04-03T13:13:10.192Z,9.30
2023-04-03T13:18:23.306Z,9.30
2023-04-03T13:23:24.407Z,9.00
2023-04-03T13:28:28.434Z,9.10
2023-04-03T13:33:32.589Z,8.90
2023-04-03T13:38:37.339Z,8.70
2023-04-03T13:43:41.411Z,8.62
2023-04-03T13:48:49.688Z,8.80
2023-04-03T13:53:54.458Z,8.78
2023-04-03T13:59:26.507Z,8.70
2023-04-03T14:04:29.762Z,8.90
2023-04-03T14:09:32.484Z,9.74
2023-04-03T14:14:36.566Z,9.70
2023-04-03T14:19:38.658Z,9.60
2023-04-03T14:24:37.915Z,10.20
2023-04-03T14:29:39.423Z,10.10
2023-04-03T14:34:38.803Z,9.80
2023-04-03T14:39:38.893Z,9.48
2023-04-03T14:44:40.317Z,8.92
2023-04-03T14:49:39.632Z,8.50
2023-04-03T14:54:38.907Z,8.10
2023-04-03T14:59:38.449Z,7.80
2023-04-03T15:04:37.188Z,7.50
2023-04-03T15:09:37.099Z,7.22
2023-04-03T15:14:42.268Z,7.00
2023-04-03T15:19:49.847Z,6.70
2023-04-03T15:24:49.982Z,6.38
2023-04-03T15:29:49.903Z,6.10
2023-04-03T15:34:50.088Z,5.98
2023-04-03T15:39:49.927Z,5.90
2023-04-03T15:44:49.051Z,5.70
2023-04-03T15:49:48.522Z,5.60
2023-04-03T15:54:47.871Z,5.50
2023-04-03T15:59:47.315Z,5.30
2023-04-03T16:04:58.313Z,5.20
2023-04-03T16:10:03.299Z,5.10
2023-04-03T16:15:03.254Z,5.00
2023-04-03T16:20:04.483Z,4.90
2023-04-03T16:25:05.852Z,4.80
2023-04-03T16:30:06.070Z,4.80
2023-04-03T16:35:05.739Z,4.70
2023-04-03T16:40:06.338Z,4.70
2023-04-03T16:45:05.688Z,4.66
2023-04-03T16:50:05.368Z,4.60
2023-04-03T16:55:05.921Z,4.58
2023-04-03T17:00:13.212Z,4.52
2023-04-03T17:05:13.799Z,4.48
2023-04-03T17:10:15.334Z,4.40
2023-04-03T17:15:15.556Z,4.30
2023-04-03T17:20:17.516Z,4.20
2023-04-03T17:25:17.684Z,4.12
2023-04-03T17:30:18.390Z,4.10
2023-04-03T17:35:17.681Z,4.00
2023-04-03T17:40:18.810Z,4.00
2023-04-03T17:45:19.008Z,3.90
2023-04-03T17:50:18.172Z,3.80
2023-04-03T17:55:18.194Z,3.80
2023-04-03T18:00:21.347Z,3.80
2023-04-03T18:05:21.498Z,3.80
2023-04-03T18:10:22.812Z,3.80
2023-04-03T18:15:22.769Z,3.70
2023-04-03T18:20:23.707Z,3.70
2023-04-03T18:25:24.632Z,3.60
2023-04-03T18:30:26.723Z,3.60
2023-04-03T18:35:26.355Z,3.60
2023-04-03T18:40:26.977Z,3.50
2023-04-03T18:45:28.812Z,3.36
2023-04-03T18:50:28.099Z,3.22
2023-04-03T18:55:27.557Z,3.20
2023-04-03T19:00:28.156Z,3.10
2023-04-03T19:05:27.511Z,3.02
2023-04-03T19:10:27.418Z,3.00
2023-04-03T19:15:28.390Z,2.92
2023-04-03T19:20:27.667Z,2.90
2023-04-03T19:25:27.852Z,2.90
2023-04-03T19:30:27.822Z,2.90
2023-04-03T19:41:56.062Z,2.86
2023-04-03T19:46:55.815Z,2.80
2023-04-03T19:51:55.845Z,2.80
2023-04-03T19:56:56.017Z,2.70
2023-04-03T20:01:57.831Z,2.70
2023-04-03T20:06:58.963Z,2.70
2023-04-03T20:12:00.215Z,2.70
2023-04-03T20:16:59.989Z,2.70
2023-04-03T20:22:01.139Z,2.60
2023-04-03T20:27:02.104Z,2.60
2023-04-03T20:32:04.229Z,2.56
2023-04-03T20:37:03.942Z,2.50
2023-04-03T20:42:04.207Z,2.40
2023-04-03T20:47:04.278Z,2.40
2023-04-03T20:52:04.646Z,2.30
2023-04-03T20:57:27.878Z,2.20
2023-04-03T21:02:28.184Z,2.10
2023-04-03T21:08:35.128Z,2.00
2023-04-03T21:14:35.250Z,1.94
2023-04-03T21:19:53.784Z,1.90
2023-04-03T21:24:52.941Z,1.80
2023-04-03T21:29:53.469Z,1.80
2023-04-03T21:34:52.794Z,1.70
2023-04-03T21:39:52.431Z,1.70
2023-04-03T21:44:52.094Z,1.60
2023-04-03T21:49:51.018Z,1.50
2023-04-03T21:54:49.898Z,1.50
2023-04-03T21:59:50.863Z,1.40
2023-04-03T22:04:50.214Z,1.40
2023-04-03T22:09:49.585Z,1.30
2023-04-03T22:14:48.199Z,1.20
2023-04-03T22:19:49.960Z,1.10
2023-04-03T22:24:48.736Z,1.08
2023-04-03T22:29:48.246Z,1.00
2023-04-03T22:34:47.890Z,0.90
2023-04-03T22:39:48.086Z,0.82
2023-04-03T22:44:47.496Z,0.78
2023-04-03T22:49:46.570Z,0.70
2023-04-03T22:54:45.967Z,0.60
2023-04-03T22:59:47.019Z,0.58
2023-04-03T23:04:46.650Z,0.50
2023-04-03T23:09:46.131Z,0.42
2023-04-03T23:14:49.593Z,0.40
2023-04-03T23:19:48.793Z,0.40
2023-04-03T23:24:48.442Z,0.30
2023-04-03T23:29:48.716Z,0.30
2023-04-03T23:34:48.333Z,0.20
2023-04-03T23:39:47.707Z,0.20
2023-04-03T23:44:48.158Z,0.20
2023-04-03T23:49:47.795Z,0.20
2023-04-03T23:54:47.497Z,0.10
2023-04-03T23:59:46.947Z,0.00
